Time;durP1;ratioP1;P1;durP2;ratioP2;P2;SDS_P1;SDS_P2;PMS_P1;PMS_P2;Temp;Humidity;BMP_temperature;BMP_pressure;BME280_temperature;BME280_humidity;BME280_pressure;Samples;Min_cycle;Max_cycle;Signal;HPM_P1;HPM_P2
2021/10/31 00:02:18;;;;;;;10.75;4.63;;;;;;;12.80;94.62;100527.91;4992525;28;20482;-48
2021/10/31 00:04:46;;;;;;;10.88;5.18;;;;;;;12.83;94.44;100530.06;4993308;28;20142;-46
2021/10/31 00:07:14;;;;;;;11.35;4.97;;;;;;;12.84;94.13;100536.34;4993507;28;20052;-49
2021/10/31 00:09:41;;;;;;;10.90;5.15;;;;;;;12.84;93.85;100542.63;4992984;28;20051;-49
2021/10/31 00:12:09;;;;;;;9.70;4.60;;;;;;;12.81;93.85;100542.41;4993259;28;20046;-47
2021/10/31 00:14:37;;;;;;;10.13;4.85;;;;;;;12.77;93.46;100545.72;4992991;28;20050;-47
2021/10/31 00:17:05;;;;;;;10.63;4.35;;;;;;;12.74;94.47;100542.72;4993544;28;20046;-46
2021/10/31 00:19:33;;;;;;;10.30;4.57;;;;;;;12.74;94.19;100545.47;4992951;28;20551;-49
2021/10/31 00:22:02;;;;;;;10.77;5.28;;;;;;;12.72;94.09;100540.31;4992808;28;20049;-47
2021/10/31 00:24:29;;;;;;;11.38;4.65;;;;;;;12.71;93.61;100546.88;4992474;28;20042;-43
2021/10/31 00:26:57;;;;;;;11.35;5.03;;;;;;;12.71;93.96;100541.41;4993118;28;20042;-44
2021/10/31 00:29:24;;;;;;;12.73;5.45;;;;;;;12.69;93.61;100546.34;4994175;28;20042;-47
2021/10/31 00:31:52;;;;;;;10.48;4.90;;;;;;;12.66;93.32;100540.63;4992860;28;20051;-47
2021/10/31 00:34:19;;;;;;;11.38;5.30;;;;;;;12.66;94.48;100541.44;4992904;28;20501;-45
2021/10/31 00:36:47;;;;;;;11.35;5.00;;;;;;;12.66;94.26;100541.44;4992775;28;20433;-46
2021/10/31 00:39:14;;;;;;;11.80;5.20;;;;;;;12.67;94.06;100542.25;4992745;28;20034;-47
2021/10/31 00:41:42;;;;;;;11.00;4.85;;;;;;;12.66;93.86;100541.44;4991117;28;20046;-47
2021/10/31 00:44:10;;;;;;;9.95;4.75;;;;;;;12.62;93.17;100545.84;4992628;28;20057;-48
2021/10/31 00:46:37;;;;;;;9.75;5.15;;;;;;;12.57;93.06;100543.97;4992511;28;20046;-46
2021/10/31 00:49:05;;;;;;;10.48;4.78;;;;;;;12.53;93.64;100548.41;4992819;28;20030;-47
2021/10/31 00:51:33;;;;;;;8.95;4.85;;;;;;;12.53;93.61;100558.50;4992625;28;20043;-45
2021/10/31 00:54:01;;;;;;;9.77;4.78;;;;;;;12.53;93.91;100559.34;4992498;28;20043;-46
2021/10/31 00:56:28;;;;;;;9.68;4.70;;;;;;;12.53;93.90;100558.50;4991014;28;20096;-45
2021/10/31 00:58:56;;;;;;;10.40;4.57;;;;;;;12.53;94.15;100553.03;4992530;28;20053;-47
2021/10/31 01:01:26;;;;;;;13.48;4.57;;;;;;;12.53;93.46;100558.50;4992476;28;20493;-47
2021/10/31 01:03:56;;;;;;;9.52;4.45;;;;;;;12.51;93.08;100558.81;4991242;28;20049;-45
2021/10/31 01:06:58;;;;;;;8.25;3.90;;;;;;;12.49;93.95;100554.75;4992233;28;20054;-45
2021/10/31 01:09:34;;;;;;;13.32;4.90;;;;;;;12.47;93.55;100548.75;4978452;28;20062;-45
2021/10/31 01:12:40;;;;;;;10.40;4.90;;;;;;;12.46;93.39;100558.03;4991198;28;20034;-45
2021/10/31 01:15:49;;;;;;;10.07;4.72;;;;;;;12.46;92.94;100558.03;4996484;28;20066;-46
2021/10/31 01:18:45;;;;;;;11.63;4.60;;;;;;;12.41;93.25;100566.28;4995056;28;20045;-46
2021/10/31 01:21:24;;;;;;;11.65;4.93;;;;;;;12.36;93.40;100559.78;4995547;28;20046;-45
2021/10/31 01:24:29;;;;;;;11.45;4.80;;;;;;;12.33;93.32;100571.25;4995093;28;20042;-47
2021/10/31 01:27:12;;;;;;;10.57;4.38;;;;;;;12.30;93.25;100569.09;4987064;28;20054;-46
2021/10/31 01:29:52;;;;;;;10.75;4.32;;;;;;;12.30;93.75;100569.09;4994755;28;20038;-46
2021/10/31 01:32:45;;;;;;;9.50;4.45;;;;;;;12.28;93.84;100567.75;4996254;28;20114;-46
2021/10/31 01:35:49;;;;;;;7.75;4.18;;;;;;;12.27;93.43;100568.88;4996436;28;20053;-46
2021/10/31 01:38:29;;;;;;;8.27;4.22;;;;;;;12.28;93.82;100563.09;4995862;28;20050;-46
2021/10/31 01:41:05;;;;;;;7.82;4.40;;;;;;;12.33;93.28;100567.72;4995247;28;20276;-46
2021/10/31 01:44:05;;;;;;;9.60;4.80;;;;;;;12.35;92.68;100569.06;5010905;28;20413;-46
2021/10/31 01:46:42;;;;;;;14.07;4.75;;;;;;;12.30;92.70;100573.75;4994880;28;20101;-47
2021/10/31 01:49:39;;;;;;;7.00;4.05;;;;;;;12.27;93.15;100575.13;4995904;28;20038;-48
2021/10/31 01:52:16;;;;;;;9.32;4.10;;;;;;;12.29;93.59;100581.13;4992792;28;20078;-45
2021/10/31 01:55:03;;;;;;;13.82;4.90;;;;;;;12.31;93.33;100584.41;4994547;28;20050;-46
2021/10/31 01:57:32;;;;;;;10.60;4.25;;;;;;;12.32;92.32;100583.28;5010390;28;20496;-46
2021/10/31 02:00:05;;;;;;;10.93;4.40;;;;;;;12.28;92.76;100579.50;4994700;28;20040;-47
2021/10/31 02:02:40;;;;;;;11.20;4.85;;;;;;;12.27;92.46;100572.41;4995643;28;20093;-46
2021/10/31 02:05:09;;;;;;;9.15;4.55;;;;;;;12.22;92.02;100571.63;4994538;28;20447;-47
2021/10/31 02:07:40;;;;;;;9.88;4.85;;;;;;;12.14;92.34;100579.31;5010436;28;20527;-47
2021/10/31 02:10:09;;;;;;;8.68;4.53;;;;;;;12.09;92.62;100581.28;4994878;28;20046;-47
2021/10/31 02:12:39;;;;;;;11.60;4.25;;;;;;;12.05;93.25;100585.66;4994288;28;20617;-47
2021/10/31 02:15:08;;;;;;;9.50;5.15;;;;;;;12.04;92.55;100584.06;5010696;28;20097;-46
2021/10/31 02:17:36;;;;;;;8.27;4.57;;;;;;;12.02;93.47;100581.59;5010296;28;20407;-48
2021/10/31 02:20:04;;;;;;;9.95;5.00;;;;;;;12.04;93.36;100579.41;4993495;28;20041;-45
2021/10/31 02:22:32;;;;;;;8.10;4.40;;;;;;;12.01;93.07;100579.16;4994229;28;20461;-46
2021/10/31 02:25:03;;;;;;;10.13;4.47;;;;;;;11.94;92.76;100574.81;4993335;28;20035;-45
2021/10/31 02:27:33;;;;;;;11.57;4.63;;;;;;;11.91;92.12;100578.13;4995194;28;20054;-46
2021/10/31 02:30:03;;;;;;;10.52;5.05;;;;;;;11.85;92.76;100576.47;4995186;28;20042;-49
2021/10/31 02:32:32;;;;;;;7.90;4.38;;;;;;;11.83;93.82;100577.88;4995117;28;20051;-50
2021/10/31 02:35:00;;;;;;;12.38;4.50;;;;;;;11.88;93.63;100586.06;4995551;28;20405;-47
2021/10/31 02:37:28;;;;;;;8.38;4.60;;;;;;;11.91;93.26;100580.84;4995073;28;20070;-47
2021/10/31 02:39:56;;;;;;;10.13;4.25;;;;;;;11.94;93.17;100576.75;4993943;28;20051;-48
2021/10/31 02:42:24;;;;;;;8.88;4.53;;;;;;;11.97;92.81;100584.34;4995348;28;20042;-46
2021/10/31 02:44:51;;;;;;;10.65;4.25;;;;;;;11.98;92.82;100577.81;4994616;28;20057;-46
2021/10/31 02:47:40;;;;;;;13.38;5.10;;;;;;;11.99;92.70;100570.44;4994787;28;20447;-45
2021/10/31 02:50:21;;;;;;;10.75;4.57;;;;;;;11.90;91.97;100573.75;4993989;28;20045;-45
2021/10/31 02:53:11;;;;;;;9.73;4.90;;;;;;;11.82;92.01;100571.59;4993547;28;20057;-46
2021/10/31 02:55:52;;;;;;;9.57;4.60;;;;;;;11.77;92.29;100574.34;4998264;28;20464;-45
2021/10/31 02:58:25;;;;;;;10.13;5.25;;;;;;;11.78;93.13;100570.53;4994654;28;20497;-48
2021/10/31 03:01:01;;;;;;;9.52;4.65;;;;;;;11.75;93.65;100568.38;4994061;28;20089;-43
2021/10/31 03:03:31;;;;;;;10.75;5.00;;;;;;;11.73;93.73;100567.81;4988424;28;20053;-47
2021/10/31 03:05:59;;;;;;;11.05;5.30;;;;;;;11.74;93.16;100566.75;4994308;28;20030;-46
2021/10/31 03:08:28;;;;;;;9.48;5.03;;;;;;;11.77;93.90;100562.63;4994269;28;20049;-45
2021/10/31 03:10:58;;;;;;;8.07;4.72;;;;;;;11.80;93.59;100565.59;4994100;28;20034;-45
2021/10/31 03:13:27;;;;;;;10.40;5.20;;;;;;;11.83;92.86;100562.28;4994647;28;20042;-47
2021/10/31 03:15:55;;;;;;;11.52;5.75;;;;;;;11.83;92.47;100566.94;4994451;28;20046;-46
2021/10/31 03:18:23;;;;;;;8.63;5.40;;;;;;;11.79;93.06;100561.25;4994394;28;20600;-47
2021/10/31 03:20:51;;;;;;;11.40;5.25;;;;;;;11.78;93.30;100565.06;4992989;28;20389;-44
2021/10/31 03:23:19;;;;;;;12.88;5.18;;;;;;;11.77;92.67;100565.38;4994248;28;20045;-46
2021/10/31 03:25:47;;;;;;;11.60;5.50;;;;;;;11.78;93.54;100559.59;4994127;28;20042;-48
2021/10/31 03:28:14;;;;;;;8.95;5.43;;;;;;;11.80;93.26;100562.06;4994554;28;20046;-48
2021/10/31 03:30:42;;;;;;;8.77;5.28;;;;;;;11.77;92.44;100552.53;4993994;28;20042;-47
2021/10/31 03:33:10;;;;;;;10.80;5.43;;;;;;;11.73;92.82;100554.19;4993594;28;20034;-47
2021/10/31 03:35:37;;;;;;;10.82;5.82;;;;;;;11.71;92.62;100556.38;4993429;28;20042;-43
2021/10/31 03:38:05;;;;;;;11.80;6.00;;;;;;;11.72;93.44;100556.09;4993178;28;20043;-47
2021/10/31 03:40:33;;;;;;;9.70;5.30;;;;;;;11.73;93.60;100549.53;4993901;28;20050;-46
2021/10/31 03:43:01;;;;;;;11.57;5.97;;;;;;;11.69;93.24;100562.13;4993567;28;20092;-45
2021/10/31 03:45:28;;;;;;;9.98;5.78;;;;;;;11.66;92.95;100550.94;4993683;28;20569;-46
2021/10/31 03:47:56;;;;;;;10.07;5.82;;;;;;;11.56;92.80;100567.38;4993985;28;20108;-45
2021/10/31 03:50:24;;;;;;;10.80;5.68;;;;;;;11.51;93.23;100557.31;4993102;28;20050;-46
2021/10/31 03:52:52;;;;;;;11.32;5.70;;;;;;;11.46;93.76;100552.69;4992746;28;20047;-49
2021/10/31 03:55:19;;;;;;;9.70;5.53;;;;;;;11.48;94.62;100550.50;4993501;28;20042;-45
2021/10/31 03:57:47;;;;;;;9.75;5.70;;;;;;;11.54;93.73;100558.66;4993813;28;20043;-46
2021/10/31 04:00:15;;;;;;;11.82;6.30;;;;;;;11.52;93.90;100564.41;4993402;28;20038;-46
2021/10/31 04:02:44;;;;;;;11.85;5.93;;;;;;;11.52;93.95;100556.22;4993432;28;20046;-46
2021/10/31 04:05:12;;;;;;;11.57;6.20;;;;;;;11.56;93.67;100553.72;4992926;28;20086;-46
2021/10/31 04:07:42;;;;;;;11.63;5.63;;;;;;;11.56;93.83;100553.72;4993535;28;20081;-46
2021/10/31 04:10:10;;;;;;;13.15;5.47;;;;;;;11.60;93.47;100549.34;4992808;28;20049;-46
2021/10/31 04:12:38;;;;;;;10.82;6.20;;;;;;;11.62;93.85;100547.97;4993252;28;20448;-46
2021/10/31 04:15:07;;;;;;;11.30;5.88;;;;;;;11.64;93.20;100550.41;4993342;28;20035;-45
2021/10/31 04:17:34;;;;;;;10.63;5.70;;;;;;;11.63;92.99;100538.69;4993391;28;20100;-47
2021/10/31 04:20:02;;;;;;;16.35;6.05;;;;;;;11.62;92.46;100538.97;4992758;28;20386;-45
2021/10/31 04:22:30;;;;;;;12.15;5.85;;;;;;;11.57;92.40;100536.25;4993331;28;20049;-45
2021/10/31 04:24:58;;;;;;;10.82;5.85;;;;;;;11.57;92.81;100530.78;4993005;28;20038;-47
2021/10/31 04:27:26;;;;;;;9.45;5.70;;;;;;;11.54;93.29;100532.19;4993002;28;20038;-48
2021/10/31 04:29:53;;;;;;;10.20;5.88;;;;;;;11.55;93.06;100536.56;4993151;28;20034;-47
2021/10/31 04:32:21;;;;;;;12.27;6.35;;;;;;;11.56;93.23;100531.91;4992078;28;20062;-48
2021/10/31 04:34:49;;;;;;;12.27;6.30;;;;;;;11.51;92.68;100533.56;4991837;28;20046;-44
2021/10/31 04:37:17;;;;;;;10.77;6.25;;;;;;;11.47;92.59;100532.50;4989276;28;20038;-46
2021/10/31 04:39:45;;;;;;;12.25;6.88;;;;;;;11.43;92.74;100530.63;4992622;28;20062;-46
2021/10/31 04:42:13;;;;;;;10.80;6.18;;;;;;;11.44;93.57;100532.25;4993255;28;20081;-46
2021/10/31 04:44:41;;;;;;;12.68;6.32;;;;;;;11.45;93.71;100518.34;4992639;28;20050;-50
2021/10/31 04:47:09;;;;;;;10.15;6.53;;;;;;;11.44;93.08;100522.13;4992734;28;20062;-44
2021/10/31 04:49:36;;;;;;;13.88;6.25;;;;;;;11.41;93.54;100519.97;4992290;28;20161;-44
2021/10/31 04:52:04;;;;;;;9.95;6.05;;;;;;;11.41;93.12;100514.53;4992956;28;20112;-46
2021/10/31 04:54:32;;;;;;;13.30;5.68;;;;;;;11.43;93.24;100509.59;4992081;28;20038;-46
2021/10/31 04:57:00;;;;;;;9.25;5.38;;;;;;;11.44;93.06;100521.34;4992869;28;20042;-46
2021/10/31 04:59:27;;;;;;;10.63;5.80;;;;;;;11.42;93.14;100524.31;4992906;28;20386;-47
2021/10/31 05:01:55;;;;;;;11.60;5.75;;;;;;;11.42;93.68;100518.06;4991796;28;20046;-47
2021/10/31 05:04:23;;;;;;;9.68;5.68;;;;;;;11.38;93.70;100523.28;4991908;28;20074;-44
2021/10/31 05:06:50;;;;;;;9.95;5.68;;;;;;;11.34;93.93;100516.75;4992828;28;20043;-48
2021/10/31 05:09:18;;;;;;;13.68;6.10;;;;;;;11.34;93.53;100519.47;4992411;28;20076;-46
2021/10/31 05:11:46;;;;;;;10.77;5.60;;;;;;;11.31;93.24;100509.13;4992632;28;20043;-45
2021/10/31 05:14:14;;;;;;;8.20;5.40;;;;;;;11.25;93.86;100505.59;4992256;28;20046;-47
2021/10/31 05:16:41;;;;;;;10.25;5.82;;;;;;;11.26;94.46;100503.69;4984139;28;20050;-47
2021/10/31 05:19:10;;;;;;;10.27;5.35;;;;;;;11.28;94.31;100506.94;4978641;28;20474;-47
2021/10/31 05:21:38;;;;;;;11.05;5.15;;;;;;;11.29;94.34;100497.69;4992657;28;20402;-48
2021/10/31 05:24:05;;;;;;;8.77;5.38;;;;;;;11.31;94.03;100495.50;4991993;28;20505;-44
2021/10/31 05:26:33;;;;;;;10.25;5.45;;;;;;;11.30;93.96;100488.38;4992612;28;20038;-47
2021/10/31 05:29:01;;;;;;;9.40;5.55;;;;;;;11.32;94.45;100488.13;4992100;28;20042;-48
2021/10/31 05:31:28;;;;;;;11.13;5.68;;;;;;;11.36;93.88;100498.19;4992321;28;20046;-47
2021/10/31 05:33:57;;;;;;;9.27;5.63;;;;;;;11.36;93.85;100498.19;4991739;28;20523;-48
2021/10/31 05:36:25;;;;;;;9.60;5.20;;;;;;;11.35;93.74;100496.53;4992370;28;20050;-45
2021/10/31 05:38:52;;;;;;;9.18;5.00;;;;;;;11.35;93.49;100496.53;4991747;28;20054;-47
2021/10/31 05:41:20;;;;;;;8.85;5.10;;;;;;;11.38;94.20;100487.81;4992463;28;20120;-47
2021/10/31 05:43:47;;;;;;;8.77;5.53;;;;;;;11.42;94.08;100499.78;4991921;28;20057;-47
2021/10/31 05:46:15;;;;;;;7.85;5.20;;;;;;;11.44;93.42;100491.31;4992032;28;20042;-47
2021/10/31 05:48:43;;;;;;;10.02;5.40;;;;;;;11.45;93.87;100493.78;5007004;28;20086;-45
2021/10/31 05:51:10;;;;;;;11.10;5.28;;;;;;;11.43;93.45;100476.88;5006727;28;20424;-47
2021/10/31 05:53:38;;;;;;;9.77;5.60;;;;;;;11.43;93.35;100474.16;4991487;28;20030;-47
2021/10/31 05:56:07;;;;;;;11.52;5.38;;;;;;;11.45;93.88;100471.16;4992319;28;20492;-46
2021/10/31 05:58:34;;;;;;;9.73;6.10;;;;;;;11.46;93.15;100470.03;4992308;28;20042;-48
2021/10/31 06:01:02;;;;;;;10.23;5.32;;;;;;;11.46;93.71;100461.84;4994684;28;20405;-46
2021/10/31 06:03:30;;;;;;;9.77;6.05;;;;;;;11.45;93.54;100461.03;4995379;28;20046;-47
2021/10/31 06:06:00;;;;;;;10.18;5.20;;;;;;;11.46;93.20;100462.66;4995971;28;20050;-47
2021/10/31 06:08:27;;;;;;;17.65;5.80;;;;;;;11.46;94.24;100464.56;4995269;28;20050;-47
2021/10/31 06:10:55;;;;;;;8.80;5.60;;;;;;;11.46;94.02;100459.94;4995381;28;20062;-48
2021/10/31 06:13:36;;;;;;;8.73;5.28;;;;;;;11.48;94.01;100452.28;4995461;28;20068;-47
2021/10/31 06:16:05;;;;;;;9.63;5.60;;;;;;;11.50;93.31;100454.75;4995513;28;20125;-47
2021/10/31 06:18:33;;;;;;;11.27;5.80;;;;;;;11.50;93.81;100462.91;4995332;28;20070;-47
2021/10/31 06:21:02;;;;;;;12.45;5.68;;;;;;;11.51;93.93;100453.63;4994743;28;20051;-46
2021/10/31 06:23:31;;;;;;;10.15;5.63;;;;;;;11.51;93.33;100448.97;4995017;28;20093;-49
2021/10/31 06:26:00;;;;;;;9.27;6.30;;;;;;;11.49;93.25;100440.25;4994846;28;20563;-48
2021/10/31 06:28:29;;;;;;;9.23;5.80;;;;;;;11.46;94.09;100432.66;4995018;28;20526;-48
2021/10/31 06:30:56;;;;;;;11.63;6.40;;;;;;;11.42;93.69;100428.84;4994397;28;20497;-48
2021/10/31 06:33:25;;;;;;;9.15;5.88;;;;;;;11.43;93.82;100422.31;4995166;28;20405;-45
2021/10/31 06:35:54;;;;;;;12.45;5.95;;;;;;;11.42;93.90;100425.31;4994876;28;20039;-47
2021/10/31 06:38:22;;;;;;;10.20;5.45;;;;;;;11.42;93.95;100423.38;4994348;28;20042;-48
2021/10/31 06:40:49;;;;;;;9.50;5.93;;;;;;;11.43;93.95;100433.22;4993791;28;20054;-48
2021/10/31 06:43:17;;;;;;;11.35;6.28;;;;;;;11.42;93.53;100425.31;4994688;28;20045;-48
2021/10/31 06:45:45;;;;;;;11.40;6.00;;;;;;;11.39;94.45;100426.69;4993522;28;20077;-48
2021/10/31 06:48:12;;;;;;;8.77;5.72;;;;;;;11.36;93.96;100419.09;4995009;28;20480;-49
2021/10/31 06:50:40;;;;;;;8.77;5.60;;;;;;;11.34;94.02;100407.63;4994103;28;20050;-47
2021/10/31 06:53:07;;;;;;;7.65;5.28;;;;;;;11.33;94.52;100411.47;4994230;28;20045;-48
2021/10/31 06:55:36;;;;;;;8.00;5.50;;;;;;;11.33;94.43;100406.03;4994692;28;20077;-45
2021/10/31 06:58:04;;;;;;;8.45;5.18;;;;;;;11.29;95.19;100396.78;4992843;28;20038;-49
2021/10/31 07:00:31;;;;;;;9.50;5.50;;;;;;;11.27;94.57;100401.69;4993573;28;20053;-49
2021/10/31 07:02:59;;;;;;;8.68;5.30;;;;;;;11.27;95.56;100398.97;4994202;28;20052;-48
2021/10/31 07:05:27;;;;;;;9.45;5.13;;;;;;;11.27;95.22;100396.22;4993921;28;20069;-48
2021/10/31 07:07:54;;;;;;;7.75;4.75;;;;;;;11.26;95.61;100391.88;4994019;28;20061;-48
2021/10/31 07:10:22;;;;;;;11.30;5.43;;;;;;;11.24;95.13;100389.44;4993786;28;20042;-47
2021/10/31 07:12:50;;;;;;;8.80;5.18;;;;;;;11.27;95.87;100382.59;4994321;28;20061;-45
2021/10/31 07:15:18;;;;;;;9.65;5.30;;;;;;;11.30;94.99;100380.13;4991361;28;20038;-47
2021/10/31 07:17:45;;;;;;;8.88;4.90;;;;;;;11.34;94.98;100379.56;4993564;28;20046;-47
2021/10/31 07:20:13;;;;;;;8.80;4.53;;;;;;;11.36;94.49;100396.47;4993275;28;20031;-48
2021/10/31 07:22:42;;;;;;;8.73;4.68;;;;;;;11.39;94.94;100395.88;4993668;28;20133;-48
2021/10/31 07:25:10;;;;;;;8.45;4.97;;;;;;;11.39;94.45;100393.97;4993507;28;20038;-49
2021/10/31 07:27:38;;;;;;;8.77;4.72;;;;;;;11.40;94.77;100378.41;4989707;28;20058;-47
2021/10/31 07:30:07;;;;;;;11.55;5.47;;;;;;;11.42;94.68;100371.56;4993357;28;20045;-49
2021/10/31 07:32:34;;;;;;;7.50;4.50;;;;;;;11.43;94.47;100378.66;4993656;28;20034;-47
2021/10/31 07:35:02;;;;;;;8.82;4.78;;;;;;;11.40;94.25;100368.31;4993359;28;20405;-47
2021/10/31 07:37:30;;;;;;;8.50;4.70;;;;;;;11.38;94.48;100367.78;4993173;28;20038;-49
2021/10/31 07:39:58;;;;;;;9.68;4.70;;;;;;;11.38;94.50;100375.97;4992936;28;20054;-49
2021/10/31 07:42:30;;;;;;;6.93;4.50;;;;;;;11.40;94.22;100368.31;4993440;28;20073;-51
2021/10/31 07:44:58;;;;;;;10.65;4.72;;;;;;;11.40;94.08;100375.69;4992459;28;20473;-48
2021/10/31 07:47:26;;;;;;;6.50;4.00;;;;;;;11.40;94.01;100381.97;4993683;28;20046;-47
2021/10/31 07:49:54;;;;;;;11.18;4.60;;;;;;;11.39;94.03;100380.31;4993228;28;20042;-49
2021/10/31 07:52:22;;;;;;;9.02;4.47;;;;;;;11.42;94.23;100376.22;4993506;28;20053;-46
2021/10/31 07:54:50;;;;;;;7.93;4.40;;;;;;;11.42;93.66;100379.75;4992914;28;20030;-44
2021/10/31 07:57:20;;;;;;;9.25;4.30;;;;;;;11.42;93.97;100379.75;4991957;28;20046;-47
2021/10/31 07:59:47;;;;;;;7.72;4.32;;;;;;;11.36;93.37;100367.25;4992833;28;20038;-47
2021/10/31 08:02:15;;;;;;;7.72;4.53;;;;;;;11.34;93.60;100377.63;4993547;28;20331;-49
2021/10/31 08:04:43;;;;;;;8.18;4.50;;;;;;;11.36;93.82;100382.81;4993251;28;20048;-47
2021/10/31 08:07:12;;;;;;;7.95;4.43;;;;;;;11.38;94.65;100375.97;4991890;28;20070;-48
2021/10/31 08:09:40;;;;;;;8.05;4.45;;;;;;;11.43;93.84;100375.13;4990345;28;20061;-48
2021/10/31 08:12:09;;;;;;;10.07;4.60;;;;;;;11.47;93.63;100378.91;4992885;28;20050;-48
2021/10/31 08:14:36;;;;;;;7.22;4.30;;;;;;;11.47;94.02;100374.28;4993138;28;20065;-49
2021/10/31 08:17:04;;;;;;;8.05;4.32;;;;;;;11.49;93.29;100376.69;4992499;28;20420;-45
2021/10/31 08:19:32;;;;;;;7.90;4.00;;;;;;;11.50;93.57;100370.97;4993132;28;20405;-46
2021/10/31 08:22:00;;;;;;;6.25;4.32;;;;;;;11.51;93.36;100377.22;4992825;28;20034;-46
2021/10/31 08:24:28;;;;;;;7.82;4.10;;;;;;;11.51;92.99;100375.31;4992831;28;20058;-47
2021/10/31 08:26:55;;;;;;;8.30;4.40;;;;;;;11.53;93.38;100361.41;4992169;28;20046;-44
2021/10/31 08:29:24;;;;;;;7.78;4.40;;;;;;;11.52;92.69;100354.31;4993240;28;20060;-47
2021/10/31 08:31:55;;;;;;;7.90;4.25;;;;;;;11.52;92.78;100354.31;4993236;28;20043;-45
2021/10/31 08:34:23;;;;;;;7.65;4.15;;;;;;;11.50;92.52;100353.78;4993011;28;20535;-47
2021/10/31 08:36:51;;;;;;;5.97;3.83;;;;;;;11.48;92.73;100348.63;4993262;28;20046;-46
2021/10/31 08:39:19;;;;;;;6.95;4.25;;;;;;;11.48;93.00;100332.25;4992694;28;20054;-48
2021/10/31 08:41:46;;;;;;;6.25;4.10;;;;;;;11.51;92.79;100328.94;4992882;28;20485;-47
2021/10/31 08:44:14;;;;;;;5.15;4.05;;;;;;;11.56;93.08;100319.09;4992533;28;20050;-47
2021/10/31 08:46:42;;;;;;;6.60;3.63;;;;;;;11.58;92.38;100312.22;4993322;28;20409;-47
2021/10/31 08:49:10;;;;;;;14.95;4.35;;;;;;;11.59;92.37;100305.66;4992787;28;20050;-47
2021/10/31 08:51:38;;;;;;;7.53;3.88;;;;;;;11.61;91.91;100305.38;4992779;28;20125;-48
2021/10/31 08:54:06;;;;;;;5.85;3.92;;;;;;;11.61;92.46;100310.84;4991369;28;20046;-47
2021/10/31 08:56:34;;;;;;;7.53;4.45;;;;;;;11.59;92.17;100296.66;4988521;28;20035;-49
2021/10/31 08:59:02;;;;;;;6.97;3.88;;;;;;;11.59;92.35;100299.41;4992809;28;20057;-47
2021/10/31 09:01:30;;;;;;;6.63;3.75;;;;;;;11.61;92.85;100280.81;4992297;28;20049;-47
2021/10/31 09:03:59;;;;;;;7.32;4.35;;;;;;;11.62;92.30;100288.75;4992725;28;20034;-48
2021/10/31 09:06:27;;;;;;;6.80;4.15;;;;;;;11.64;92.42;100280.25;4991800;28;20049;-49
2021/10/31 09:08:55;;;;;;;7.05;4.53;;;;;;;11.67;92.31;100283.22;4989725;28;20053;-47
2021/10/31 09:11:23;;;;;;;9.50;5.13;;;;;;;11.69;92.13;100288.41;4987792;28;20409;-47
2021/10/31 09:13:51;;;;;;;6.50;4.30;;;;;;;11.70;92.58;100276.38;4988965;28;20049;-48
2021/10/31 09:16:19;;;;;;;6.68;4.35;;;;;;;11.73;92.00;100279.31;4990958;28;20089;-48
2021/10/31 09:18:47;;;;;;;9.00;4.90;;;;;;;11.76;91.68;100264.31;4992561;28;20042;-47
2021/10/31 09:21:17;;;;;;;7.70;4.78;;;;;;;11.80;90.62;100259.06;4987028;28;20042;-48
2021/10/31 09:23:49;;;;;;;6.45;4.50;;;;;;;11.80;90.96;100261.81;4985973;28;20038;-48
2021/10/31 09:26:19;;;;;;;7.50;4.97;;;;;;;11.83;91.41;100251.09;4987410;28;20406;-47
2021/10/31 09:28:48;;;;;;;7.78;4.97;;;;;;;11.83;90.40;100240.19;4992557;28;20049;-47
2021/10/31 09:31:16;;;;;;;8.68;5.05;;;;;;;11.83;91.34;100244.84;4990891;28;20042;-48
2021/10/31 09:33:44;;;;;;;8.93;4.75;;;;;;;11.83;91.24;100239.38;4992568;28;20465;-47
2021/10/31 09:36:12;;;;;;;7.32;4.97;;;;;;;11.86;90.48;100239.63;4986348;28;20034;-47
2021/10/31 09:38:40;;;;;;;8.35;5.05;;;;;;;11.88;90.92;100240.19;4995656;28;20053;-47
2021/10/31 09:41:11;;;;;;;7.32;5.00;;;;;;;11.90;90.64;100229.75;4996042;28;20049;-47
2021/10/31 09:43:47;;;;;;;9.25;5.35;;;;;;;11.92;90.38;100227.56;4996120;28;20069;-48
2021/10/31 09:46:15;;;;;;;8.43;5.22;;;;;;;11.95;89.56;100223.44;4996245;28;20046;-48
2021/10/31 09:48:43;;;;;;;8.02;5.03;;;;;;;11.97;89.92;100214.97;4996493;28;20054;-47
2021/10/31 09:51:11;;;;;;;12.68;5.15;;;;;;;12.01;89.08;100226.94;4995607;28;20042;-47
2021/10/31 09:53:39;;;;;;;8.30;4.82;;;;;;;12.02;89.61;100223.09;4995731;28;20042;-49
2021/10/31 09:56:07;;;;;;;8.20;4.75;;;;;;;12.05;89.28;100219.75;4995349;28;20038;-46
2021/10/31 09:58:40;;;;;;;7.72;4.75;;;;;;;12.09;89.98;100215.34;4985453;28;20043;-47
2021/10/31 10:01:38;;;;;;;8.68;4.90;;;;;;;12.10;89.27;100206.88;4990428;28;20516;-47
2021/10/31 10:04:06;;;;;;;7.13;4.63;;;;;;;12.14;89.55;100196.97;4995768;28;20054;-47
2021/10/31 10:06:35;;;;;;;6.53;4.43;;;;;;;12.20;90.08;100196.91;4994463;28;20489;-49
2021/10/31 10:09:10;;;;;;;8.05;4.60;;;;;;;12.22;88.87;100192.78;4993058;28;20046;-48
2021/10/31 10:11:43;;;;;;;7.13;4.53;;;;;;;12.22;88.36;100184.59;4994275;28;20058;-48
2021/10/31 10:14:37;;;;;;;7.60;4.38;;;;;;;12.26;88.29;100188.34;4993697;28;20038;-48
2021/10/31 10:17:09;;;;;;;7.15;4.53;;;;;;;12.33;88.70;100183.31;4988281;28;20042;-49
2021/10/31 10:19:50;;;;;;;6.93;4.50;;;;;;;12.34;88.03;100178.69;4994038;28;20062;-46
2021/10/31 10:22:20;;;;;;;7.50;3.95;;;;;;;12.38;88.27;100170.69;4994205;28;20046;-48
2021/10/31 10:25:00;;;;;;;6.97;3.80;;;;;;;12.43;87.76;100170.63;4987109;28;20565;-49
2021/10/31 10:27:32;;;;;;;8.70;3.85;;;;;;;12.46;87.68;100162.66;4984771;28;20050;-49
2021/10/31 10:30:11;;;;;;;10.05;4.05;;;;;;;12.54;87.68;100155.72;4992405;28;20043;-45
2021/10/31 10:32:51;;;;;;;6.88;3.45;;;;;;;12.60;86.49;100146.31;4994524;28;20042;-49
2021/10/31 10:35:21;;;;;;;10.50;3.78;;;;;;;12.66;87.28;100147.84;4994980;28;20046;-48
2021/10/31 10:37:50;;;;;;;6.65;3.20;;;;;;;12.70;86.39;100137.97;4980725;28;20064;-45
2021/10/31 10:40:25;;;;;;;4.95;2.95;;;;;;;12.71;86.43;100136.84;5007969;28;20057;-47
2021/10/31 10:42:55;;;;;;;9.40;3.10;;;;;;;12.73;86.25;100126.41;4993309;28;20049;-48
2021/10/31 10:45:25;;;;;;;4.78;2.80;;;;;;;12.76;86.03;100125.81;4992973;28;20413;-48
2021/10/31 10:47:59;;;;;;;5.53;2.90;;;;;;;12.78;85.62;100120.84;4994153;28;20046;-47
2021/10/31 10:50:30;;;;;;;4.20;2.88;;;;;;;12.82;86.13;100109.31;4992924;28;20042;-44
2021/10/31 10:52:58;;;;;;;5.68;3.05;;;;;;;12.85;86.36;100103.28;4990541;28;20042;-46
2021/10/31 10:55:34;;;;;;;4.75;3.00;;;;;;;12.84;86.10;100096.16;4994286;28;20043;-47
2021/10/31 10:58:11;;;;;;;6.75;2.88;;;;;;;12.83;86.08;100089.09;4992836;28;20568;-49
2021/10/31 11:00:40;;;;;;;7.15;2.70;;;;;;;12.84;86.33;100087.97;4989721;28;20049;-48
2021/10/31 11:03:10;;;;;;;4.28;2.50;;;;;;;12.84;86.80;100083.28;4992459;28;20050;-48
2021/10/31 11:05:49;;;;;;;4.38;2.70;;;;;;;12.85;86.33;100068.53;4993891;28;20089;-47
2021/10/31 11:08:18;;;;;;;3.97;2.60;;;;;;;12.90;86.37;100064.88;4993277;28;20038;-48
2021/10/31 11:10:46;;;;;;;6.53;2.67;;;;;;;12.91;86.34;100061.84;4991855;28;20083;-46
2021/10/31 11:13:14;;;;;;;3.08;2.53;;;;;;;12.94;86.17;100047.59;4985575;28;20043;-48
2021/10/31 11:15:41;;;;;;;5.30;2.72;;;;;;;12.97;86.03;100054.38;4992641;28;20046;-46
2021/10/31 11:18:10;;;;;;;5.47;2.60;;;;;;;12.99;86.11;100039.28;4989664;28;20039;-47
2021/10/31 11:20:45;;;;;;;5.45;2.70;;;;;;;13.02;85.88;100034.31;4992864;28;20034;-49
2021/10/31 11:23:16;;;;;;;4.85;2.63;;;;;;;13.03;86.08;100017.59;4992320;28;20046;-47
2021/10/31 11:25:45;;;;;;;3.80;2.55;;;;;;;13.05;85.92;100015.38;4991213;28;20405;-46
2021/10/31 11:28:16;;;;;;;4.60;2.53;;;;;;;13.04;86.11;100013.75;4993649;28;20532;-47
2021/10/31 11:30:46;;;;;;;5.68;2.63;;;;;;;13.06;85.76;100008.78;4993252;28;20390;-47
2021/10/31 11:33:14;;;;;;;6.75;2.50;;;;;;;13.07;86.08;99998.66;4991813;28;20066;-44
2021/10/31 11:35:42;;;;;;;4.40;2.60;;;;;;;13.07;86.22;100002.19;4992978;28;20125;-47
2021/10/31 11:38:22;;;;;;;3.88;2.45;;;;;;;13.08;86.72;99990.13;4994008;28;20046;-47